sensor_id;sensor_type;location;lat;lon;timestamp;P1;durP1;ratioP1;P2;durP2;ratioP2
83119;SDS011;73001;51.784;4.660;2024-03-02T00:00:20;0.65;;;0.58;;
83119;SDS011;73001;51.784;4.660;2024-03-02T00:02:47;0.76;;;0.69;;
83119;SDS011;73001;51.784;4.660;2024-03-02T00:05:15;0.77;;;0.72;;
83119;SDS011;73001;51.784;4.660;2024-03-02T00:07:43;0.70;;;0.66;;
83119;SDS011;73001;51.784;4.660;2024-03-02T00:10:11;0.71;;;0.69;;
83119;SDS011;73001;51.784;4.660;2024-03-02T00:12:39;0.56;;;0.54;;
83119;SDS011;73001;51.784;4.660;2024-03-02T00:15:23;0.56;;;0.55;;
83119;SDS011;73001;51.784;4.660;2024-03-02T00:18:06;0.68;;;0.66;;
83119;SDS011;73001;51.784;4.660;2024-03-02T00:20:35;0.61;;;0.60;;
83119;SDS011;73001;51.784;4.660;2024-03-02T00:23:04;0.67;;;0.66;;
83119;SDS011;73001;51.784;4.660;2024-03-02T00:25:38;0.56;;;0.55;;
83119;SDS011;73001;51.784;4.660;2024-03-02T00:28:16;0.67;;;0.65;;
83119;SDS011;73001;51.784;4.660;2024-03-02T00:30:51;0.69;;;0.67;;
83119;SDS011;73001;51.784;4.660;2024-03-02T00:33:26;0.77;;;0.75;;
83119;SDS011;73001;51.784;4.660;2024-03-02T00:35:55;0.86;;;0.84;;
83119;SDS011;73001;51.784;4.660;2024-03-02T00:38:21;0.85;;;0.84;;
83119;SDS011;73001;51.784;4.660;2024-03-02T00:40:47;0.94;;;0.94;;
83119;SDS011;73001;51.784;4.660;2024-03-02T00:46:02;0.93;;;0.93;;
83119;SDS011;73001;51.784;4.660;2024-03-02T00:48:28;0.90;;;0.90;;
83119;SDS011;73001;51.784;4.660;2024-03-02T00:50:56;0.92;;;0.92;;
83119;SDS011;73001;51.784;4.660;2024-03-02T00:53:23;0.87;;;0.87;;
83119;SDS011;73001;51.784;4.660;2024-03-02T00:55:51;0.85;;;0.85;;
83119;SDS011;73001;51.784;4.660;2024-03-02T00:58:17;0.85;;;0.85;;
83119;SDS011;73001;51.784;4.660;2024-03-02T01:00:42;0.85;;;0.85;;
83119;SDS011;73001;51.784;4.660;2024-03-02T01:03:08;0.86;;;0.86;;
83119;SDS011;73001;51.784;4.660;2024-03-02T01:05:33;0.90;;;0.90;;
83119;SDS011;73001;51.784;4.660;2024-03-02T01:08:00;0.97;;;0.97;;
83119;SDS011;73001;51.784;4.660;2024-03-02T01:10:25;1.01;;;1.01;;
83119;SDS011;73001;51.784;4.660;2024-03-02T01:12:53;0.88;;;0.88;;
83119;SDS011;73001;51.784;4.660;2024-03-02T01:15:19;0.99;;;0.99;;
83119;SDS011;73001;51.784;4.660;2024-03-02T01:17:44;0.86;;;0.86;;
83119;SDS011;73001;51.784;4.660;2024-03-02T01:20:10;0.85;;;0.85;;
83119;SDS011;73001;51.784;4.660;2024-03-02T01:22:36;0.74;;;0.74;;
83119;SDS011;73001;51.784;4.660;2024-03-02T01:25:02;0.68;;;0.68;;
83119;SDS011;73001;51.784;4.660;2024-03-02T01:27:28;0.71;;;0.71;;
83119;SDS011;73001;51.784;4.660;2024-03-02T01:29:53;0.59;;;0.59;;
83119;SDS011;73001;51.784;4.660;2024-03-02T01:32:19;0.57;;;0.57;;
83119;SDS011;73001;51.784;4.660;2024-03-02T01:34:45;0.70;;;0.70;;
83119;SDS011;73001;51.784;4.660;2024-03-02T01:37:11;0.61;;;0.61;;
83119;SDS011;73001;51.784;4.660;2024-03-02T01:39:36;0.74;;;0.74;;
83119;SDS011;73001;51.784;4.660;2024-03-02T01:42:02;0.71;;;0.71;;
83119;SDS011;73001;51.784;4.660;2024-03-02T01:44:27;0.74;;;0.73;;
83119;SDS011;73001;51.784;4.660;2024-03-02T01:46:53;0.55;;;0.55;;
83119;SDS011;73001;51.784;4.660;2024-03-02T01:49:18;0.68;;;0.67;;
83119;SDS011;73001;51.784;4.660;2024-03-02T01:51:44;0.63;;;0.62;;
83119;SDS011;73001;51.784;4.660;2024-03-02T01:54:09;0.65;;;0.64;;
83119;SDS011;73001;51.784;4.660;2024-03-02T01:56:35;0.71;;;0.70;;
83119;SDS011;73001;51.784;4.660;2024-03-02T01:59:01;0.72;;;0.71;;
83119;SDS011;73001;51.784;4.660;2024-03-02T02:01:26;0.61;;;0.60;;
83119;SDS011;73001;51.784;4.660;2024-03-02T02:03:52;0.55;;;0.54;;
83119;SDS011;73001;51.784;4.660;2024-03-02T02:06:17;0.94;;;0.93;;
83119;SDS011;73001;51.784;4.660;2024-03-02T02:08:43;0.85;;;0.83;;
83119;SDS011;73001;51.784;4.660;2024-03-02T02:11:08;0.83;;;0.81;;
83119;SDS011;73001;51.784;4.660;2024-03-02T02:13:34;0.80;;;0.79;;
83119;SDS011;73001;51.784;4.660;2024-03-02T02:16:06;0.95;;;0.94;;
83119;SDS011;73001;51.784;4.660;2024-03-02T02:18:32;0.74;;;0.73;;
83119;SDS011;73001;51.784;4.660;2024-03-02T02:20:58;0.82;;;0.82;;
83119;SDS011;73001;51.784;4.660;2024-03-02T02:23:23;0.93;;;0.92;;
83119;SDS011;73001;51.784;4.660;2024-03-02T02:25:49;1.02;;;1.02;;
83119;SDS011;73001;51.784;4.660;2024-03-02T02:28:14;0.99;;;0.99;;
83119;SDS011;73001;51.784;4.660;2024-03-02T02:30:39;0.97;;;0.97;;
83119;SDS011;73001;51.784;4.660;2024-03-02T02:33:05;0.94;;;0.94;;
83119;SDS011;73001;51.784;4.660;2024-03-02T02:35:30;0.96;;;0.96;;
83119;SDS011;73001;51.784;4.660;2024-03-02T02:37:56;0.96;;;0.96;;
83119;SDS011;73001;51.784;4.660;2024-03-02T02:40:23;1.07;;;1.07;;
83119;SDS011;73001;51.784;4.660;2024-03-02T02:42:48;0.95;;;0.95;;
83119;SDS011;73001;51.784;4.660;2024-03-02T02:45:13;0.76;;;0.76;;
83119;SDS011;73001;51.784;4.660;2024-03-02T02:47:40;1.09;;;1.09;;
83119;SDS011;73001;51.784;4.660;2024-03-02T02:50:07;0.94;;;0.94;;
83119;SDS011;73001;51.784;4.660;2024-03-02T02:52:33;0.92;;;0.92;;
83119;SDS011;73001;51.784;4.660;2024-03-02T02:55:01;0.69;;;0.69;;
83119;SDS011;73001;51.784;4.660;2024-03-02T02:57:28;0.80;;;0.80;;
83119;SDS011;73001;51.784;4.660;2024-03-02T02:59:55;0.84;;;0.84;;
83119;SDS011;73001;51.784;4.660;2024-03-02T03:02:21;0.80;;;0.80;;
83119;SDS011;73001;51.784;4.660;2024-03-02T03:04:46;0.83;;;0.82;;
83119;SDS011;73001;51.784;4.660;2024-03-02T03:07:12;0.92;;;0.91;;
83119;SDS011;73001;51.784;4.660;2024-03-02T03:09:37;0.80;;;0.80;;
83119;SDS011;73001;51.784;4.660;2024-03-02T03:12:04;0.80;;;0.80;;
83119;SDS011;73001;51.784;4.660;2024-03-02T03:14:29;0.77;;;0.77;;
83119;SDS011;73001;51.784;4.660;2024-03-02T03:16:55;0.76;;;0.76;;
83119;SDS011;73001;51.784;4.660;2024-03-02T03:19:20;0.76;;;0.75;;
83119;SDS011;73001;51.784;4.660;2024-03-02T03:21:46;0.85;;;0.85;;
83119;SDS011;73001;51.784;4.660;2024-03-02T03:24:11;0.84;;;0.84;;
83119;SDS011;73001;51.784;4.660;2024-03-02T03:26:37;0.75;;;0.75;;
83119;SDS011;73001;51.784;4.660;2024-03-02T03:29:02;0.81;;;0.81;;
83119;SDS011;73001;51.784;4.660;2024-03-02T03:31:28;0.75;;;0.74;;
83119;SDS011;73001;51.784;4.660;2024-03-02T03:33:54;0.67;;;0.67;;
83119;SDS011;73001;51.784;4.660;2024-03-02T03:36:20;0.71;;;0.71;;
83119;SDS011;73001;51.784;4.660;2024-03-02T03:38:45;0.76;;;0.76;;
83119;SDS011;73001;51.784;4.660;2024-03-02T03:41:10;0.68;;;0.68;;
83119;SDS011;73001;51.784;4.660;2024-03-02T03:43:36;0.79;;;0.78;;
83119;SDS011;73001;51.784;4.660;2024-03-02T03:46:01;0.76;;;0.75;;
83119;SDS011;73001;51.784;4.660;2024-03-02T03:48:27;0.81;;;0.80;;
83119;SDS011;73001;51.784;4.660;2024-03-02T03:50:55;0.79;;;0.78;;
83119;SDS011;73001;51.784;4.660;2024-03-02T03:53:21;0.71;;;0.70;;
83119;SDS011;73001;51.784;4.660;2024-03-02T03:55:47;0.65;;;0.64;;
83119;SDS011;73001;51.784;4.660;2024-03-02T03:58:14;0.70;;;0.70;;
83119;SDS011;73001;51.784;4.660;2024-03-02T04:00:41;0.75;;;0.74;;
83119;SDS011;73001;51.784;4.660;2024-03-02T04:03:07;0.64;;;0.64;;
83119;SDS011;73001;51.784;4.660;2024-03-02T04:05:33;0.77;;;0.76;;
83119;SDS011;73001;51.784;4.660;2024-03-02T04:07:58;0.62;;;0.62;;
83119;SDS011;73001;51.784;4.660;2024-03-02T04:10:25;0.68;;;0.67;;
83119;SDS011;73001;51.784;4.660;2024-03-02T04:12:50;0.81;;;0.79;;
83119;SDS011;73001;51.784;4.660;2024-03-02T04:15:16;0.86;;;0.84;;
83119;SDS011;73001;51.784;4.660;2024-03-02T04:17:41;0.80;;;0.78;;
83119;SDS011;73001;51.784;4.660;2024-03-02T04:20:07;0.87;;;0.85;;
83119;SDS011;73001;51.784;4.660;2024-03-02T04:22:33;0.83;;;0.81;;
83119;SDS011;73001;51.784;4.660;2024-03-02T04:24:59;0.83;;;0.82;;
83119;SDS011;73001;51.784;4.660;2024-03-02T04:27:25;0.88;;;0.87;;
83119;SDS011;73001;51.784;4.660;2024-03-02T04:29:51;0.96;;;0.94;;
83119;SDS011;73001;51.784;4.660;2024-03-02T04:32:16;0.93;;;0.91;;
83119;SDS011;73001;51.784;4.660;2024-03-02T04:34:42;0.96;;;0.94;;
83119;SDS011;73001;51.784;4.660;2024-03-02T04:37:08;0.98;;;0.96;;
83119;SDS011;73001;51.784;4.660;2024-03-02T04:39:34;0.98;;;0.96;;
83119;SDS011;73001;51.784;4.660;2024-03-02T04:42:00;1.06;;;1.04;;
83119;SDS011;73001;51.784;4.660;2024-03-02T04:44:26;1.02;;;1.00;;
83119;SDS011;73001;51.784;4.660;2024-03-02T04:46:51;1.08;;;1.05;;
83119;SDS011;73001;51.784;4.660;2024-03-02T04:49:17;0.98;;;0.95;;
83119;SDS011;73001;51.784;4.660;2024-03-02T04:51:42;1.06;;;1.03;;
83119;SDS011;73001;51.784;4.660;2024-03-02T04:54:07;0.89;;;0.86;;
83119;SDS011;73001;51.784;4.660;2024-03-02T04:56:33;0.89;;;0.87;;
83119;SDS011;73001;51.784;4.660;2024-03-02T04:59:09;0.86;;;0.83;;
83119;SDS011;73001;51.784;4.660;2024-03-02T05:01:35;1.03;;;0.99;;
83119;SDS011;73001;51.784;4.660;2024-03-02T05:04:01;0.86;;;0.82;;
83119;SDS011;73001;51.784;4.660;2024-03-02T05:06:26;0.89;;;0.84;;
83119;SDS011;73001;51.784;4.660;2024-03-02T05:08:52;0.81;;;0.76;;
83119;SDS011;73001;51.784;4.660;2024-03-02T05:11:17;1.00;;;0.94;;
83119;SDS011;73001;51.784;4.660;2024-03-02T05:14:15;0.99;;;0.92;;
83119;SDS011;73001;51.784;4.660;2024-03-02T05:16:40;1.12;;;1.02;;
83119;SDS011;73001;51.784;4.660;2024-03-02T05:19:06;0.92;;;0.83;;
83119;SDS011;73001;51.784;4.660;2024-03-02T05:21:33;1.12;;;1.02;;
83119;SDS011;73001;51.784;4.660;2024-03-02T05:23:58;1.04;;;0.95;;
83119;SDS011;73001;51.784;4.660;2024-03-02T05:26:24;0.97;;;0.89;;
83119;SDS011;73001;51.784;4.660;2024-03-02T05:28:50;0.91;;;0.83;;
83119;SDS011;73001;51.784;4.660;2024-03-02T05:31:15;0.98;;;0.89;;
83119;SDS011;73001;51.784;4.660;2024-03-02T05:33:41;1.04;;;0.94;;
83119;SDS011;73001;51.784;4.660;2024-03-02T05:36:07;1.18;;;1.08;;
83119;SDS011;73001;51.784;4.660;2024-03-02T05:38:36;1.23;;;1.10;;
83119;SDS011;73001;51.784;4.660;2024-03-02T05:41:01;1.03;;;0.91;;
83119;SDS011;73001;51.784;4.660;2024-03-02T05:43:27;1.06;;;0.94;;
83119;SDS011;73001;51.784;4.660;2024-03-02T05:45:52;1.14;;;1.01;;
83119;SDS011;73001;51.784;4.660;2024-03-02T05:48:18;1.08;;;0.94;;
83119;SDS011;73001;51.784;4.660;2024-03-02T05:50:43;1.01;;;0.88;;
83119;SDS011;73001;51.784;4.660;2024-03-02T05:53:09;0.98;;;0.87;;
83119;SDS011;73001;51.784;4.660;2024-03-02T05:55:34;1.21;;;1.09;;
83119;SDS011;73001;51.784;4.660;2024-03-02T05:57:59;1.07;;;0.96;;
83119;SDS011;73001;51.784;4.660;2024-03-02T06:00:47;0.92;;;0.82;;
83119;SDS011;73001;51.784;4.660;2024-03-02T06:03:13;1.18;;;1.06;;
83119;SDS011;73001;51.784;4.660;2024-03-02T06:05:38;0.89;;;0.79;;
83119;SDS011;73001;51.784;4.660;2024-03-02T06:08:04;0.94;;;0.84;;
83119;SDS011;73001;51.784;4.660;2024-03-02T06:10:29;1.00;;;0.87;;
83119;SDS011;73001;51.784;4.660;2024-03-02T06:12:55;1.02;;;0.90;;
83119;SDS011;73001;51.784;4.660;2024-03-02T06:15:20;1.24;;;1.10;;
83119;SDS011;73001;51.784;4.660;2024-03-02T06:17:45;0.88;;;0.78;;
83119;SDS011;73001;51.784;4.660;2024-03-02T06:20:11;1.24;;;1.09;;
83119;SDS011;73001;51.784;4.660;2024-03-02T06:22:36;1.02;;;0.89;;
83119;SDS011;73001;51.784;4.660;2024-03-02T06:25:02;0.96;;;0.84;;
83119;SDS011;73001;51.784;4.660;2024-03-02T06:27:27;1.07;;;0.93;;
83119;SDS011;73001;51.784;4.660;2024-03-02T06:29:53;1.22;;;1.05;;
83119;SDS011;73001;51.784;4.660;2024-03-02T06:32:19;0.97;;;0.84;;
83119;SDS011;73001;51.784;4.660;2024-03-02T06:34:45;1.15;;;0.99;;
83119;SDS011;73001;51.784;4.660;2024-03-02T06:37:10;1.21;;;1.05;;
83119;SDS011;73001;51.784;4.660;2024-03-02T06:39:36;1.18;;;1.00;;
83119;SDS011;73001;51.784;4.660;2024-03-02T06:42:01;1.40;;;1.20;;
83119;SDS011;73001;51.784;4.660;2024-03-02T06:44:27;1.10;;;0.96;;
83119;SDS011;73001;51.784;4.660;2024-03-02T06:46:53;1.19;;;1.05;;
83119;SDS011;73001;51.784;4.660;2024-03-02T06:49:18;1.04;;;0.92;;
83119;SDS011;73001;51.784;4.660;2024-03-02T06:51:44;1.08;;;0.94;;
83119;SDS011;73001;51.784;4.660;2024-03-02T06:54:09;1.15;;;0.99;;
83119;SDS011;73001;51.784;4.660;2024-03-02T06:56:35;1.17;;;1.01;;
83119;SDS011;73001;51.784;4.660;2024-03-02T06:59:00;1.18;;;1.01;;
83119;SDS011;73001;51.784;4.660;2024-03-02T07:01:26;1.47;;;1.26;;
83119;SDS011;73001;51.784;4.660;2024-03-02T07:03:51;1.15;;;1.00;;
83119;SDS011;73001;51.784;4.660;2024-03-02T07:06:17;1.31;;;1.13;;
83119;SDS011;73001;51.784;4.660;2024-03-02T07:08:42;1.29;;;1.11;;
83119;SDS011;73001;51.784;4.660;2024-03-02T07:11:08;1.33;;;1.14;;
83119;SDS011;73001;51.784;4.660;2024-03-02T07:13:34;1.34;;;1.13;;
83119;SDS011;73001;51.784;4.660;2024-03-02T07:16:00;1.27;;;1.08;;
83119;SDS011;73001;51.784;4.660;2024-03-02T07:18:28;1.32;;;1.12;;
83119;SDS011;73001;51.784;4.660;2024-03-02T07:20:55;1.36;;;1.16;;
83119;SDS011;73001;51.784;4.660;2024-03-02T07:23:23;1.55;;;1.31;;
83119;SDS011;73001;51.784;4.660;2024-03-02T07:25:52;1.30;;;1.09;;
83119;SDS011;73001;51.784;4.660;2024-03-02T07:28:25;1.45;;;1.23;;
83119;SDS011;73001;51.784;4.660;2024-03-02T07:31:00;1.41;;;1.20;;
83119;SDS011;73001;51.784;4.660;2024-03-02T07:33:27;1.48;;;1.27;;
83119;SDS011;73001;51.784;4.660;2024-03-02T07:35:53;1.33;;;1.16;;
83119;SDS011;73001;51.784;4.660;2024-03-02T07:38:20;1.24;;;1.10;;
83119;SDS011;73001;51.784;4.660;2024-03-02T07:40:46;1.32;;;1.18;;
83119;SDS011;73001;51.784;4.660;2024-03-02T07:43:15;1.67;;;1.52;;
83119;SDS011;73001;51.784;4.660;2024-03-02T07:45:41;1.57;;;1.45;;
83119;SDS011;73001;51.784;4.660;2024-03-02T07:48:07;1.53;;;1.41;;
83119;SDS011;73001;51.784;4.660;2024-03-02T07:50:32;1.82;;;1.69;;
83119;SDS011;73001;51.784;4.660;2024-03-02T07:53:00;1.50;;;1.42;;
83119;SDS011;73001;51.784;4.660;2024-03-02T07:55:26;1.26;;;1.20;;
83119;SDS011;73001;51.784;4.660;2024-03-02T07:57:51;1.39;;;1.31;;
83119;SDS011;73001;51.784;4.660;2024-03-02T08:00:17;1.48;;;1.36;;
83119;SDS011;73001;51.784;4.660;2024-03-02T08:02:42;1.34;;;1.23;;
83119;SDS011;73001;51.784;4.660;2024-03-02T08:05:08;1.48;;;1.35;;
83119;SDS011;73001;51.784;4.660;2024-03-02T08:07:34;1.41;;;1.28;;
83119;SDS011;73001;51.784;4.660;2024-03-02T08:09:59;1.53;;;1.39;;
83119;SDS011;73001;51.784;4.660;2024-03-02T08:12:25;1.56;;;1.39;;
83119;SDS011;73001;51.784;4.660;2024-03-02T08:14:50;1.46;;;1.32;;
83119;SDS011;73001;51.784;4.660;2024-03-02T08:17:16;1.38;;;1.26;;
83119;SDS011;73001;51.784;4.660;2024-03-02T08:19:42;1.83;;;1.65;;
83119;SDS011;73001;51.784;4.660;2024-03-02T08:22:08;1.36;;;1.21;;
83119;SDS011;73001;51.784;4.660;2024-03-02T08:24:34;1.37;;;1.20;;
83119;SDS011;73001;51.784;4.660;2024-03-02T08:27:01;1.38;;;1.19;;
83119;SDS011;73001;51.784;4.660;2024-03-02T08:29:26;1.32;;;1.12;;
83119;SDS011;73001;51.784;4.660;2024-03-02T08:31:52;1.37;;;1.15;;
83119;SDS011;73001;51.784;4.660;2024-03-02T08:34:18;1.68;;;1.40;;
83119;SDS011;73001;51.784;4.660;2024-03-02T08:36:43;1.67;;;1.39;;
83119;SDS011;73001;51.784;4.660;2024-03-02T08:39:09;1.49;;;1.23;;
83119;SDS011;73001;51.784;4.660;2024-03-02T08:41:41;1.44;;;1.18;;
83119;SDS011;73001;51.784;4.660;2024-03-02T08:44:09;1.44;;;1.19;;
83119;SDS011;73001;51.784;4.660;2024-03-02T08:46:35;1.62;;;1.31;;
83119;SDS011;73001;51.784;4.660;2024-03-02T08:49:01;1.87;;;1.45;;
83119;SDS011;73001;51.784;4.660;2024-03-02T08:51:26;1.70;;;1.33;;
83119;SDS011;73001;51.784;4.660;2024-03-02T08:53:52;1.47;;;1.15;;
83119;SDS011;73001;51.784;4.660;2024-03-02T08:56:17;1.65;;;1.29;;
83119;SDS011;73001;51.784;4.660;2024-03-02T08:58:43;1.65;;;1.29;;
83119;SDS011;73001;51.784;4.660;2024-03-02T09:01:09;1.80;;;1.38;;
83119;SDS011;73001;51.784;4.660;2024-03-02T09:03:36;1.81;;;1.37;;
83119;SDS011;73001;51.784;4.660;2024-03-02T09:06:02;1.70;;;1.29;;
83119;SDS011;73001;51.784;4.660;2024-03-02T09:08:28;1.66;;;1.27;;
83119;SDS011;73001;51.784;4.660;2024-03-02T09:10:54;1.57;;;1.21;;
83119;SDS011;73001;51.784;4.660;2024-03-02T09:13:20;1.61;;;1.24;;
83119;SDS011;73001;51.784;4.660;2024-03-02T09:15:47;2.72;;;2.20;;
83119;SDS011;73001;51.784;4.660;2024-03-02T09:18:13;2.09;;;1.77;;
83119;SDS011;73001;51.784;4.660;2024-03-02T09:20:38;1.64;;;1.35;;
83119;SDS011;73001;51.784;4.660;2024-03-02T09:23:04;1.64;;;1.32;;
83119;SDS011;73001;51.784;4.660;2024-03-02T09:25:29;1.73;;;1.39;;
83119;SDS011;73001;51.784;4.660;2024-03-02T09:27:55;1.68;;;1.33;;
83119;SDS011;73001;51.784;4.660;2024-03-02T09:30:20;2.10;;;1.65;;
83119;SDS011;73001;51.784;4.660;2024-03-02T09:32:46;1.62;;;1.28;;
83119;SDS011;73001;51.784;4.660;2024-03-02T09:35:11;1.69;;;1.35;;
83119;SDS011;73001;51.784;4.660;2024-03-02T09:37:37;1.67;;;1.32;;
83119;SDS011;73001;51.784;4.660;2024-03-02T09:40:03;1.81;;;1.43;;
83119;SDS011;73001;51.784;4.660;2024-03-02T09:42:29;2.10;;;1.63;;
83119;SDS011;73001;51.784;4.660;2024-03-02T09:44:54;1.71;;;1.33;;
83119;SDS011;73001;51.784;4.660;2024-03-02T09:47:20;1.86;;;1.46;;
83119;SDS011;73001;51.784;4.660;2024-03-02T09:49:46;1.85;;;1.45;;
83119;SDS011;73001;51.784;4.660;2024-03-02T09:52:11;1.90;;;1.48;;
83119;SDS011;73001;51.784;4.660;2024-03-02T09:54:39;2.54;;;1.99;;
83119;SDS011;73001;51.784;4.660;2024-03-02T09:57:05;2.05;;;1.62;;
83119;SDS011;73001;51.784;4.660;2024-03-02T09:59:30;1.82;;;1.44;;
83119;SDS011;73001;51.784;4.660;2024-03-02T10:01:59;2.25;;;1.81;;
83119;SDS011;73001;51.784;4.660;2024-03-02T10:04:27;1.93;;;1.53;;
83119;SDS011;73001;51.784;4.660;2024-03-02T10:07:09;1.99;;;1.53;;
83119;SDS011;73001;51.784;4.660;2024-03-02T10:09:36;2.07;;;1.59;;
83119;SDS011;73001;51.784;4.660;2024-03-02T10:12:05;2.07;;;1.59;;
83119;SDS011;73001;51.784;4.660;2024-03-02T10:14:32;2.02;;;1.56;;
83119;SDS011;73001;51.784;4.660;2024-03-02T10:17:04;2.09;;;1.66;;
83119;SDS011;73001;51.784;4.660;2024-03-02T10:19:34;1.90;;;1.49;;
83119;SDS011;73001;51.784;4.660;2024-03-02T10:22:01;2.00;;;1.57;;
83119;SDS011;73001;51.784;4.660;2024-03-02T10:24:34;2.37;;;1.86;;
83119;SDS011;73001;51.784;4.660;2024-03-02T10:27:16;2.05;;;1.58;;
83119;SDS011;73001;51.784;4.660;2024-03-02T10:29:46;2.02;;;1.54;;
83119;SDS011;73001;51.784;4.660;2024-03-02T10:32:12;2.47;;;1.88;;
83119;SDS011;73001;51.784;4.660;2024-03-02T10:34:41;2.30;;;1.78;;
83119;SDS011;73001;51.784;4.660;2024-03-02T10:37:08;1.93;;;1.50;;
83119;SDS011;73001;51.784;4.660;2024-03-02T10:39:36;2.09;;;1.58;;
83119;SDS011;73001;51.784;4.660;2024-03-02T10:42:05;2.01;;;1.52;;
83119;SDS011;73001;51.784;4.660;2024-03-02T10:44:32;2.20;;;1.65;;
83119;SDS011;73001;51.784;4.660;2024-03-02T10:47:02;1.82;;;1.38;;
83119;SDS011;73001;51.784;4.660;2024-03-02T10:49:29;2.15;;;1.61;;
83119;SDS011;73001;51.784;4.660;2024-03-02T10:51:59;2.53;;;1.89;;
83119;SDS011;73001;51.784;4.660;2024-03-02T10:54:25;2.25;;;1.68;;
83119;SDS011;73001;51.784;4.660;2024-03-02T10:56:52;1.97;;;1.45;;
83119;SDS011;73001;51.784;4.660;2024-03-02T11:01:51;2.37;;;1.72;;
83119;SDS011;73001;51.784;4.660;2024-03-02T11:04:22;2.46;;;1.80;;
83119;SDS011;73001;51.784;4.660;2024-03-02T11:06:51;2.35;;;1.74;;
83119;SDS011;73001;51.784;4.660;2024-03-02T11:09:21;2.13;;;1.56;;
83119;SDS011;73001;51.784;4.660;2024-03-02T11:14:48;2.50;;;1.79;;
83119;SDS011;73001;51.784;4.660;2024-03-02T11:17:19;2.19;;;1.56;;
83119;SDS011;73001;51.784;4.660;2024-03-02T11:19:45;2.41;;;1.72;;
83119;SDS011;73001;51.784;4.660;2024-03-02T11:22:12;2.18;;;1.57;;
83119;SDS011;73001;51.784;4.660;2024-03-02T11:24:38;2.21;;;1.60;;
83119;SDS011;73001;51.784;4.660;2024-03-02T11:27:04;2.11;;;1.54;;
83119;SDS011;73001;51.784;4.660;2024-03-02T11:32:15;2.42;;;1.82;;
83119;SDS011;73001;51.784;4.660;2024-03-02T11:34:50;1.86;;;1.41;;
83119;SDS011;73001;51.784;4.660;2024-03-02T11:37:17;2.02;;;1.51;;
83119;SDS011;73001;51.784;4.660;2024-03-02T11:39:45;2.19;;;1.61;;
83119;SDS011;73001;51.784;4.660;2024-03-02T11:42:12;2.67;;;1.91;;
83119;SDS011;73001;51.784;4.660;2024-03-02T11:44:40;2.51;;;1.79;;
83119;SDS011;73001;51.784;4.660;2024-03-02T11:47:16;2.32;;;1.66;;
83119;SDS011;73001;51.784;4.660;2024-03-02T11:49:43;1.95;;;1.41;;
83119;SDS011;73001;51.784;4.660;2024-03-02T11:52:11;2.31;;;1.70;;
83119;SDS011;73001;51.784;4.660;2024-03-02T11:54:38;2.41;;;1.77;;
83119;SDS011;73001;51.784;4.660;2024-03-02T11:57:08;2.46;;;1.82;;
83119;SDS011;73001;51.784;4.660;2024-03-02T11:59:34;2.32;;;1.72;;
83119;SDS011;73001;51.784;4.660;2024-03-02T12:02:00;2.70;;;1.96;;
83119;SDS011;73001;51.784;4.660;2024-03-02T12:04:25;2.74;;;1.99;;
83119;SDS011;73001;51.784;4.660;2024-03-02T12:06:58;2.70;;;1.92;;
83119;SDS011;73001;51.784;4.660;2024-03-02T12:09:28;2.52;;;1.79;;
83119;SDS011;73001;51.784;4.660;2024-03-02T12:12:04;2.49;;;1.79;;
83119;SDS011;73001;51.784;4.660;2024-03-02T12:14:31;2.88;;;2.07;;
83119;SDS011;73001;51.784;4.660;2024-03-02T12:16:58;2.72;;;1.94;;
83119;SDS011;73001;51.784;4.660;2024-03-02T12:19:24;2.76;;;1.95;;
83119;SDS011;73001;51.784;4.660;2024-03-02T12:21:51;2.86;;;2.03;;
83119;SDS011;73001;51.784;4.660;2024-03-02T12:24:18;2.99;;;2.13;;
83119;SDS011;73001;51.784;4.660;2024-03-02T12:26:44;2.59;;;1.85;;
83119;SDS011;73001;51.784;4.660;2024-03-02T12:29:10;2.66;;;1.91;;
83119;SDS011;73001;51.784;4.660;2024-03-02T12:31:37;2.71;;;1.90;;
83119;SDS011;73001;51.784;4.660;2024-03-02T12:34:03;2.83;;;1.99;;
83119;SDS011;73001;51.784;4.660;2024-03-02T12:36:29;2.69;;;1.91;;
83119;SDS011;73001;51.784;4.660;2024-03-02T12:38:54;2.62;;;1.87;;
83119;SDS011;73001;51.784;4.660;2024-03-02T12:41:20;2.33;;;1.69;;
83119;SDS011;73001;51.784;4.660;2024-03-02T12:43:46;2.23;;;1.63;;
83119;SDS011;73001;51.784;4.660;2024-03-02T12:46:11;2.41;;;1.76;;
83119;SDS011;73001;51.784;4.660;2024-03-02T12:48:37;2.07;;;1.52;;
83119;SDS011;73001;51.784;4.660;2024-03-02T12:51:06;1.85;;;1.35;;
83119;SDS011;73001;51.784;4.660;2024-03-02T12:53:31;2.36;;;1.70;;
83119;SDS011;73001;51.784;4.660;2024-03-02T12:55:57;2.34;;;1.67;;
83119;SDS011;73001;51.784;4.660;2024-03-02T12:58:23;2.37;;;1.71;;
83119;SDS011;73001;51.784;4.660;2024-03-02T13:00:49;2.38;;;1.71;;
83119;SDS011;73001;51.784;4.660;2024-03-02T13:03:14;2.48;;;1.77;;
83119;SDS011;73001;51.784;4.660;2024-03-02T13:05:47;2.68;;;1.89;;
83119;SDS011;73001;51.784;4.660;2024-03-02T13:08:13;2.67;;;1.87;;
83119;SDS011;73001;51.784;4.660;2024-03-02T13:10:39;2.57;;;1.78;;
83119;SDS011;73001;51.784;4.660;2024-03-02T13:13:06;2.69;;;1.87;;
83119;SDS011;73001;51.784;4.660;2024-03-02T13:15:32;2.22;;;1.55;;
83119;SDS011;73001;51.784;4.660;2024-03-02T13:17:58;2.60;;;1.83;;
83119;SDS011;73001;51.784;4.660;2024-03-02T13:20:29;2.97;;;2.07;;
83119;SDS011;73001;51.784;4.660;2024-03-02T13:22:58;4.50;;;3.24;;
83119;SDS011;73001;51.784;4.660;2024-03-02T13:25:23;3.31;;;2.55;;
83119;SDS011;73001;51.784;4.660;2024-03-02T13:27:49;2.17;;;1.69;;
83119;SDS011;73001;51.784;4.660;2024-03-02T13:30:14;1.81;;;1.39;;
83119;SDS011;73001;51.784;4.660;2024-03-02T13:32:40;2.07;;;1.57;;
83119;SDS011;73001;51.784;4.660;2024-03-02T13:35:06;2.42;;;1.82;;
83119;SDS011;73001;51.784;4.660;2024-03-02T13:37:31;2.10;;;1.59;;
83119;SDS011;73001;51.784;4.660;2024-03-02T13:39:57;2.02;;;1.53;;
83119;SDS011;73001;51.784;4.660;2024-03-02T13:42:23;1.85;;;1.41;;
83119;SDS011;73001;51.784;4.660;2024-03-02T13:44:48;2.01;;;1.52;;
83119;SDS011;73001;51.784;4.660;2024-03-02T13:47:16;1.85;;;1.41;;
83119;SDS011;73001;51.784;4.660;2024-03-02T13:49:42;1.62;;;1.22;;
83119;SDS011;73001;51.784;4.660;2024-03-02T13:52:10;2.04;;;1.53;;
83119;SDS011;73001;51.784;4.660;2024-03-02T13:54:38;2.08;;;1.56;;
83119;SDS011;73001;51.784;4.660;2024-03-02T13:57:08;2.11;;;1.54;;
83119;SDS011;73001;51.784;4.660;2024-03-02T13:59:35;2.72;;;1.99;;
83119;SDS011;73001;51.784;4.660;2024-03-02T14:02:03;2.02;;;1.47;;
83119;SDS011;73001;51.784;4.660;2024-03-02T14:04:30;1.90;;;1.40;;
83119;SDS011;73001;51.784;4.660;2024-03-02T14:06:59;2.40;;;1.75;;
83119;SDS011;73001;51.784;4.660;2024-03-02T14:09:26;2.24;;;1.62;;
83119;SDS011;73001;51.784;4.660;2024-03-02T14:11:52;2.29;;;1.66;;
83119;SDS011;73001;51.784;4.660;2024-03-02T14:14:18;2.41;;;1.75;;
83119;SDS011;73001;51.784;4.660;2024-03-02T14:16:43;2.41;;;1.77;;
83119;SDS011;73001;51.784;4.660;2024-03-02T14:19:10;2.72;;;2.01;;
83119;SDS011;73001;51.784;4.660;2024-03-02T14:21:37;2.40;;;1.76;;
83119;SDS011;73001;51.784;4.660;2024-03-02T14:24:03;2.46;;;1.82;;
83119;SDS011;73001;51.784;4.660;2024-03-02T14:26:29;2.28;;;1.71;;
83119;SDS011;73001;51.784;4.660;2024-03-02T14:28:54;2.21;;;1.64;;
83119;SDS011;73001;51.784;4.660;2024-03-02T14:31:20;2.42;;;1.78;;
83119;SDS011;73001;51.784;4.660;2024-03-02T14:33:46;2.24;;;1.64;;
83119;SDS011;73001;51.784;4.660;2024-03-02T14:36:12;2.17;;;1.60;;
83119;SDS011;73001;51.784;4.660;2024-03-02T14:38:38;2.28;;;1.68;;
83119;SDS011;73001;51.784;4.660;2024-03-02T14:41:05;2.35;;;1.74;;
83119;SDS011;73001;51.784;4.660;2024-03-02T14:43:30;2.16;;;1.60;;
83119;SDS011;73001;51.784;4.660;2024-03-02T14:45:56;2.47;;;1.81;;
83119;SDS011;73001;51.784;4.660;2024-03-02T14:48:22;2.04;;;1.49;;
83119;SDS011;73001;51.784;4.660;2024-03-02T14:50:48;2.03;;;1.48;;
83119;SDS011;73001;51.784;4.660;2024-03-02T14:53:13;2.37;;;1.74;;
83119;SDS011;73001;51.784;4.660;2024-03-02T14:55:39;2.28;;;1.69;;